Terminal Aerodrome Forecast
Issued by NWS

Home | Current Version | Previous Version | Text Only | Print | Product List | Glossary Off
Versions: 1 2 3 4 5 6 7 8 9 10 11 12 13 14 15 16

000
FTUS43 KBIS 292100 AAA
TAFMOT
TAF AMD
KMOT 292104Z 2921/3018 VRB05KT P6SM VCTS BKN050CB
      TEMPO 2921/2923 VRB10G20KT -TSRA BKN050CB
     FM300400 VRB05KT P6SM SCT050=

USA.gov is the U.S. government's official web portal to all federal, state and local government web resources and services.